Time;durP1;ratioP1;P1;durP2;ratioP2;P2;SDS_P1;SDS_P2;PMS_P1;PMS_P2;Temp;Humidity;BMP_temperature;BMP_pressure;BME280_temperature;BME280_humidity;BME280_pressure;Samples;Min_cycle;Max_cycle;Signal;HPM_P1;HPM_P2
2022/01/31 16:40:30;;;;;;;2.17;1.30;;;14.50;76.50;;;;;;2291589;62;30265;-75
2022/01/31 16:43:04;;;;;;;3.88;1.60;;;14.60;75.70;;;;;;2286480;62;30177;-75
2022/01/31 16:45:30;;;;;;;2.78;1.48;;;14.70;76.80;;;;;;2284334;62;29984;-72
2022/01/31 16:47:56;;;;;;;3.15;1.70;;;14.70;77.60;;;;;;2282359;62;30358;-73
2022/01/31 16:50:24;;;;;;;2.50;1.23;;;14.80;78.50;;;;;;2282314;62;30492;-73
2022/01/31 16:52:50;;;;;;;6.22;1.27;;;14.80;79.00;;;;;;2282849;62;30245;-73
2022/01/31 16:55:16;;;;;;;3.40;1.42;;;14.90;79.30;;;;;;2282763;62;30232;-75
2022/01/31 16:57:42;;;;;;;2.13;1.20;;;15.00;79.50;;;;;;2279974;62;30253;-77
2022/01/31 17:00:09;;;;;;;1.67;1.00;;;15.10;79.70;;;;;;2281654;62;30350;-76
2022/01/31 17:02:36;;;;;;;2.33;1.20;;;15.20;79.90;;;;;;2281272;62;30272;-77
2022/01/31 17:05:03;;;;;;;2.83;1.30;;;15.30;80.00;;;;;;2281328;62;30322;-77
2022/01/31 17:07:28;;;;;;;1.65;1.05;;;15.30;80.00;;;;;;2267878;62;31565;-78
2022/01/31 17:09:54;;;;;;;1.83;1.38;;;15.40;79.90;;;;;;2280425;62;30392;-77
2022/01/31 17:12:22;;;;;;;2.08;1.15;;;15.40;79.70;;;;;;2281727;62;30239;-76
2022/01/31 17:14:48;;;;;;;1.35;1.02;;;15.50;79.70;;;;;;2280903;62;30254;-77
2022/01/31 17:17:14;;;;;;;0.82;0.80;;;15.50;79.50;;;;;;2281591;62;30789;-77
2022/01/31 17:19:40;;;;;;;0.80;0.75;;;15.60;79.50;;;;;;2281316;62;30303;-77
2022/01/31 17:22:06;;;;;;;1.20;1.13;;;15.60;79.30;;;;;;2282014;62;30704;-77
2022/01/31 17:24:32;;;;;;;1.90;1.10;;;15.70;79.10;;;;;;2278420;62;30832;-77
2022/01/31 17:26:58;;;;;;;1.55;0.80;;;15.70;78.90;;;;;;2273601;62;30907;-77
2022/01/31 17:29:24;;;;;;;1.05;1.00;;;15.70;78.70;;;;;;2273536;62;30337;-77
2022/01/31 17:31:51;;;;;;;0.95;0.90;;;15.70;78.50;;;;;;2273268;62;30202;-76
2022/01/31 17:34:17;;;;;;;3.35;1.40;;;15.80;78.50;;;;;;2273572;62;30533;-75
2022/01/31 17:36:44;;;;;;;2.45;1.20;;;15.80;78.40;;;;;;2273520;62;30853;-77
2022/01/31 17:39:10;;;;;;;1.60;1.20;;;15.80;78.40;;;;;;2272648;62;30316;-77
2022/01/31 17:41:39;;;;;;;1.52;1.00;;;15.80;78.30;;;;;;2272988;62;30856;-78
2022/01/31 17:44:17;;;;;;;2.23;1.30;;;15.80;78.20;;;;;;2266903;62;30095;-76
2022/01/31 17:46:44;;;;;;;3.45;1.10;;;15.90;78.10;;;;;;2273451;62;30527;-77
2022/01/31 17:49:10;;;;;;;1.60;1.02;;;15.90;77.90;;;;;;2272914;62;30628;-78
2022/01/31 17:51:36;;;;;;;1.77;1.20;;;15.80;77.50;;;;;;2261218;62;31118;-75
2022/01/31 17:54:01;;;;;;;1.95;1.40;;;15.80;77.70;;;;;;2268108;62;30402;-76
2022/01/31 17:56:31;;;;;;;2.90;1.30;;;15.80;77.70;;;;;;2268142;62;30134;-76
2022/01/31 17:59:00;;;;;;;15.20;2.13;;;15.80;77.60;;;;;;2271259;62;30567;-81
2022/01/31 18:01:26;;;;;;;2.50;1.20;;;15.80;77.60;;;;;;2274049;62;30989;-81
2022/01/31 18:03:53;;;;;;;2.63;1.45;;;15.90;77.50;;;;;;2275195;62;31918;-81
2022/01/31 18:06:22;;;;;;;2.20;1.20;;;16.00;77.30;;;;;;2275363;62;31204;-80
2022/01/31 18:08:47;;;;;;;3.80;1.60;;;16.10;77.20;;;;;;2274678;62;30798;-78
2022/01/31 18:11:13;;;;;;;2.28;1.23;;;16.10;77.10;;;;;;2275914;62;30159;-77
2022/01/31 18:13:39;;;;;;;2.25;1.23;;;16.20;77.00;;;;;;2275781;62;30262;-79
2022/01/31 18:16:05;;;;;;;1.58;0.95;;;16.40;76.90;;;;;;2275655;62;30090;-77
2022/01/31 18:18:31;;;;;;;1.50;1.08;;;16.40;76.80;;;;;;2275628;62;30206;-77
2022/01/31 18:20:57;;;;;;;1.27;0.90;;;16.50;76.70;;;;;;2274891;62;30231;-77
2022/01/31 18:23:23;;;;;;;2.15;1.20;;;16.70;76.60;;;;;;2276077;62;30925;-77
2022/01/31 18:25:48;;;;;;;5.97;1.40;;;16.70;76.40;;;;;;2275350;62;30953;-85
2022/01/31 18:28:19;;;;;;;1.40;1.08;;;16.90;76.00;;;;;;2275720;62;30120;-84
2022/01/31 18:30:50;;;;;;;1.00;0.90;;;16.90;75.80;;;;;;2276171;62;29998;-85
2022/01/31 18:33:25;;;;;;;1.23;1.00;;;16.90;75.40;;;;;;2269229;62;30525;-87
2022/01/31 18:35:51;;;;;;;1.33;0.93;;;17.00;76.10;;;;;;2275555;62;31031;-83
2022/01/31 18:38:17;;;;;;;1.00;0.90;;;17.10;75.20;;;;;;2274994;62;30616;-82
2022/01/31 18:40:45;;;;;;;1.75;1.08;;;17.10;74.80;;;;;;2265903;62;30637;-82
2022/01/31 18:43:13;;;;;;;3.15;0.80;;;17.10;74.60;;;;;;2263615;62;30448;-83
2022/01/31 18:45:44;;;;;;;1.10;1.00;;;17.10;74.50;;;;;;2268137;62;30353;-85
2022/01/31 18:48:14;;;;;;;1.75;0.82;;;17.20;74.60;;;;;;2260497;62;30129;-86
2022/01/31 18:50:42;;;;;;;1.67;1.10;;;17.20;74.40;;;;;;2268149;62;30200;-85
2022/01/31 18:53:10;;;;;;;0.93;0.88;;;17.20;74.10;;;;;;2267241;62;30307;-85
2022/01/31 18:55:36;;;;;;;1.35;0.93;;;17.20;74.00;;;;;;2267959;62;30112;-85
2022/01/31 18:58:02;;;;;;;1.65;1.00;;;17.20;73.80;;;;;;2260813;62;31778;-87
2022/01/31 19:00:28;;;;;;;3.00;1.20;;;17.20;73.60;;;;;;2267366;62;30833;-88
2022/01/31 19:02:54;;;;;;;2.17;1.02;;;17.20;73.50;;;;;;2260324;62;30269;-85
2022/01/31 19:05:21;;;;;;;2.88;1.27;;;17.20;73.40;;;;;;2256586;62;33437;-87
2022/01/31 19:07:49;;;;;;;2.13;1.17;;;17.20;73.40;;;;;;2264832;62;30214;-87
2022/01/31 19:10:21;;;;;;;1.50;1.30;;;17.20;73.40;;;;;;2266146;62;30125;-87
2022/01/31 19:12:55;;;;;;;2.33;1.25;;;17.20;73.30;;;;;;2254758;62;30091;-87
2022/01/31 19:18:05;;;;;;;4.47;1.63;;;17.20;73.20;;;;;;2266373;62;30537;-73
2022/01/31 19:20:32;;;;;;;2.25;1.30;;;17.20;73.10;;;;;;2266328;62;30282;-74
2022/01/31 19:22:57;;;;;;;2.88;1.70;;;17.10;73.00;;;;;;2259523;62;30353;-74
2022/01/31 19:25:23;;;;;;;3.95;1.60;;;17.10;73.00;;;;;;2267182;62;30169;-73
2022/01/31 19:27:49;;;;;;;3.78;1.70;;;17.10;72.90;;;;;;2259794;62;30350;-76
2022/01/31 19:30:15;;;;;;;4.32;1.92;;;17.10;72.70;;;;;;2259843;62;30063;-75
2022/01/31 19:32:47;;;;;;;4.28;1.45;;;17.10;72.50;;;;;;2267257;62;30441;-76
2022/01/31 19:35:13;;;;;;;5.85;1.92;;;17.10;72.20;;;;;;2267186;62;30084;-76
2022/01/31 19:37:41;;;;;;;3.95;2.10;;;17.20;72.00;;;;;;2265299;62;30431;-77
2022/01/31 19:45:37;;;;;;;5.80;2.50;;;17.20;71.60;;;;;;2275115;62;30129;-77
2022/01/31 19:48:05;;;;;;;4.53;1.98;;;17.20;71.40;;;;;;2275276;62;30260;-77
2022/01/31 19:50:30;;;;;;;4.65;2.03;;;17.30;71.30;;;;;;2268201;62;30209;-76
2022/01/31 19:52:56;;;;;;;3.63;1.80;;;17.30;71.90;;;;;;2275290;62;30228;-77
2022/01/31 19:55:22;;;;;;;4.82;2.22;;;17.30;71.00;;;;;;2275191;62;30220;-76
2022/01/31 19:57:48;;;;;;;3.90;2.00;;;17.30;71.00;;;;;;2275112;62;30807;-75
2022/01/31 20:00:15;;;;;;;4.10;2.10;;;17.40;71.00;;;;;;2275161;62;30121;-75
2022/01/31 20:02:40;;;;;;;4.18;2.05;;;17.40;70.80;;;;;;2268093;62;30323;-77
2022/01/31 20:05:07;;;;;;;5.30;1.85;;;17.40;70.70;;;;;;2274730;62;30776;-75
2022/01/31 20:07:33;;;;;;;5.88;2.33;;;17.40;70.70;;;;;;2275665;62;30348;-75
2022/01/31 20:10:03;;;;;;;6.47;1.90;;;17.40;70.60;;;;;;2275277;62;30281;-77
2022/01/31 20:12:29;;;;;;;5.63;2.10;;;17.40;70.40;;;;;;2274385;62;30097;-76
2022/01/31 20:14:55;;;;;;;4.47;2.10;;;17.40;70.40;;;;;;2274821;62;30758;-75
2022/01/31 20:17:21;;;;;;;6.50;2.22;;;17.40;70.40;;;;;;2274455;62;30205;-75
2022/01/31 20:19:47;;;;;;;5.72;2.20;;;17.40;70.40;;;;;;2274192;62;30166;-77
2022/01/31 20:22:15;;;;;;;4.32;2.33;;;17.40;70.30;;;;;;2274236;62;30117;-76
2022/01/31 20:24:41;;;;;;;4.78;1.95;;;17.40;70.30;;;;;;2270362;62;30155;-76
2022/01/31 20:27:07;;;;;;;5.78;2.67;;;17.40;70.20;;;;;;2274242;62;30592;-87
2022/01/31 20:29:33;;;;;;;5.97;2.22;;;17.40;70.20;;;;;;2273755;62;30478;-77
2022/01/31 20:32:00;;;;;;;6.95;2.42;;;17.40;70.40;;;;;;2275210;62;30544;-77
2022/01/31 20:34:26;;;;;;;5.53;2.05;;;17.40;70.20;;;;;;2274832;62;30088;-78
2022/01/31 20:37:00;;;;;;;5.28;2.33;;;17.40;70.00;;;;;;2274915;62;30517;-77
2022/01/31 20:39:47;;;;;;;5.82;2.65;;;17.40;70.10;;;;;;2275281;62;30672;-78
2022/01/31 20:42:11;;;;;;;5.38;2.08;;;17.40;70.20;;;;;;2274970;62;30040;-77
2022/01/31 20:44:37;;;;;;;5.03;2.28;;;17.40;70.00;;;;;;2274866;62;30386;-78
2022/01/31 20:47:03;;;;;;;4.78;2.20;;;17.40;70.10;;;;;;2275020;62;30257;-78
2022/01/31 20:49:31;;;;;;;5.30;2.30;;;17.40;70.00;;;;;;2274951;62;30676;-78
2022/01/31 20:51:57;;;;;;;5.47;2.75;;;17.40;70.00;;;;;;2275089;62;30760;-77
2022/01/31 20:54:23;;;;;;;5.43;2.28;;;17.40;69.90;;;;;;2274994;62;30269;-77
2022/01/31 20:56:49;;;;;;;3.95;2.08;;;17.40;69.80;;;;;;2274983;62;30483;-77
2022/01/31 20:59:15;;;;;;;3.03;1.90;;;17.40;69.70;;;;;;2274902;62;30793;-76
2022/01/31 21:01:43;;;;;;;2.78;1.95;;;17.40;69.70;;;;;;2274426;62;30121;-76
2022/01/31 21:04:09;;;;;;;8.05;2.40;;;17.40;69.60;;;;;;2274919;62;30287;-75
2022/01/31 21:06:35;;;;;;;4.82;2.15;;;17.40;69.60;;;;;;2274372;62;30377;-76
2022/01/31 21:09:03;;;;;;;7.07;2.55;;;17.40;69.60;;;;;;2274883;62;30133;-74
2022/01/31 21:11:30;;;;;;;6.00;2.65;;;17.40;69.50;;;;;;2274610;62;30887;-75
2022/01/31 21:14:00;;;;;;;5.22;2.25;;;17.40;69.40;;;;;;2275002;62;30042;-75
2022/01/31 21:16:28;;;;;;;8.00;3.47;;;17.40;69.30;;;;;;2274751;62;30359;-76
2022/01/31 21:18:56;;;;;;;5.93;3.05;;;17.40;69.30;;;;;;2274955;62;30158;-75
2022/01/31 21:21:25;;;;;;;7.03;2.97;;;17.40;69.20;;;;;;2274353;62;30142;-77
2022/01/31 21:23:51;;;;;;;7.28;3.05;;;17.40;69.20;;;;;;2274209;62;30767;-76
2022/01/31 21:26:17;;;;;;;7.07;3.15;;;17.40;69.90;;;;;;2274996;62;30588;-77
2022/01/31 21:28:43;;;;;;;6.45;2.65;;;17.40;69.20;;;;;;2275398;62;30376;-76
2022/01/31 21:31:09;;;;;;;6.30;2.63;;;17.30;69.10;;;;;;2273960;62;30157;-76
2022/01/31 21:33:38;;;;;;;5.50;2.88;;;17.40;69.10;;;;;;2275548;62;30888;-75
2022/01/31 21:36:05;;;;;;;4.15;2.30;;;17.30;69.10;;;;;;2268948;62;30864;-75
2022/01/31 21:38:37;;;;;;;5.50;2.35;;;17.40;69.10;;;;;;2275929;62;30519;-75
2022/01/31 21:41:06;;;;;;;4.20;2.45;;;17.30;69.10;;;;;;2276155;62;30080;-75
2022/01/31 21:43:34;;;;;;;5.13;2.40;;;17.30;69.00;;;;;;2275384;62;30172;-75
2022/01/31 21:46:03;;;;;;;5.00;2.00;;;17.30;69.00;;;;;;2276192;62;30356;-75
2022/01/31 21:48:28;;;;;;;4.85;2.45;;;17.30;69.00;;;;;;2275710;62;30354;-75
2022/01/31 21:50:58;;;;;;;3.78;2.60;;;17.30;69.10;;;;;;2275423;62;30299;-75
2022/01/31 21:53:24;;;;;;;5.43;2.63;;;17.30;69.10;;;;;;2275302;62;31008;-74
2022/01/31 21:55:50;;;;;;;6.13;2.70;;;17.30;69.00;;;;;;2275090;62;30526;-75
2022/01/31 21:58:16;;;;;;;4.90;2.33;;;17.30;69.20;;;;;;2275666;62;30199;-77
2022/01/31 22:00:43;;;;;;;5.43;2.60;;;17.30;68.90;;;;;;2271975;62;30617;-77
2022/01/31 22:03:09;;;;;;;6.40;2.80;;;17.30;68.90;;;;;;2273679;62;30923;-78
2022/01/31 22:05:35;;;;;;;5.13;2.38;;;17.30;68.90;;;;;;2272931;62;31809;-77
2022/01/31 22:08:01;;;;;;;7.03;2.28;;;17.30;68.80;;;;;;2274050;62;30292;-77
2022/01/31 22:10:29;;;;;;;5.63;2.45;;;17.30;68.80;;;;;;2275427;62;30213;-75
2022/01/31 22:12:55;;;;;;;4.85;2.38;;;17.30;68.80;;;;;;2275800;62;31611;-75
2022/01/31 22:15:21;;;;;;;5.85;2.50;;;17.30;68.70;;;;;;2275356;62;31187;-75
2022/01/31 22:17:47;;;;;;;5.57;2.17;;;17.30;68.70;;;;;;2275562;62;30237;-76
2022/01/31 22:20:13;;;;;;;4.53;2.30;;;17.20;68.70;;;;;;2275287;62;30216;-74
2022/01/31 22:22:42;;;;;;;4.78;2.30;;;17.30;68.70;;;;;;2274785;62;30482;-75
2022/01/31 22:25:08;;;;;;;5.35;2.20;;;17.20;68.60;;;;;;2275006;62;30160;-77
2022/01/31 22:27:34;;;;;;;4.93;2.25;;;17.20;68.60;;;;;;2274841;62;30264;-76
2022/01/31 22:30:00;;;;;;;3.33;1.98;;;17.20;68.60;;;;;;2275956;62;30218;-75
2022/01/31 22:32:28;;;;;;;4.20;2.05;;;17.20;68.60;;;;;;2275752;62;31967;-75
2022/01/31 22:34:54;;;;;;;5.22;2.03;;;17.20;68.60;;;;;;2275692;62;30560;-76
2022/01/31 22:37:23;;;;;;;3.58;2.00;;;17.20;68.60;;;;;;2275446;62;30292;-76
2022/01/31 22:39:49;;;;;;;5.63;2.28;;;17.20;68.60;;;;;;2275505;62;30176;-75
2022/01/31 22:42:14;;;;;;;2.78;1.83;;;17.20;68.60;;;;;;2275819;62;31085;-77
2022/01/31 22:44:42;;;;;;;5.10;2.15;;;17.20;68.60;;;;;;2275948;62;30546;-75
2022/01/31 22:47:07;;;;;;;4.70;1.80;;;17.20;68.50;;;;;;2275715;62;30268;-74
2022/01/31 22:49:33;;;;;;;6.18;2.13;;;17.20;68.60;;;;;;2275941;62;30172;-73
2022/01/31 22:52:01;;;;;;;6.32;1.90;;;17.20;68.50;;;;;;2275881;62;31230;-78
2022/01/31 22:54:29;;;;;;;3.63;1.70;;;17.20;68.50;;;;;;2270434;62;30654;-73
2022/01/31 22:56:55;;;;;;;3.47;1.90;;;17.20;68.60;;;;;;2275619;62;30146;-74
2022/01/31 22:59:21;;;;;;;3.63;1.75;;;17.20;68.60;;;;;;2275702;62;30260;-76
2022/01/31 23:01:53;;;;;;;2.72;1.70;;;17.20;68.60;;;;;;2275702;62;30493;-74
2022/01/31 23:04:22;;;;;;;3.00;1.63;;;17.10;68.60;;;;;;2275211;62;30156;-74
2022/01/31 23:06:47;;;;;;;5.95;2.00;;;17.10;68.60;;;;;;2274520;62;30228;-74
